Time;durP1;ratioP1;P1;durP2;ratioP2;P2;SDS_P1;SDS_P2;PMS_P1;PMS_P2;Temp;Humidity;BMP_temperature;BMP_pressure;BME280_temperature;BME280_humidity;BME280_pressure;Samples;Min_cycle;Max_cycle;Signal;HPM_P1;HPM_P2
2022/12/17 13:06:03;;;;;;;30.52;17.08;;;;;;;0.88;100.00;96531.25;1038365;28;20690;-73
2022/12/17 13:06:40;;;;;;;27.77;15.73;;;;;;;1.05;100.00;96522.31;1037183;28;20260;-72
2022/12/17 13:07:25;;;;;;;27.92;15.57;;;;;;;1.11;100.00;96520.78;1033376;28;20215;-73
2022/12/17 13:08:02;;;;;;;66.15;18.30;;;;;;;0.96;100.00;96520.00;1034099;28;20272;-73
2022/12/17 13:08:32;;;;;;;29.52;15.80;;;;;;;0.51;100.00;96525.25;1026824;28;20328;-73
2022/12/17 13:09:24;;;;;;;28.00;15.75;;;;;;;0.31;100.00;96537.13;1030236;28;20643;-73
2022/12/17 13:09:56;;;;;;;71.53;18.88;;;;;;;0.73;100.00;96533.06;1019274;28;20498;-74
2022/12/17 13:10:28;;;;;;;40.10;17.13;;;;;;;0.44;100.00;96532.94;1022657;29;20322;-73
2022/12/17 13:11:24;;;;;;;27.23;15.57;;;;;;;0.44;100.00;96532.13;1026472;28;20409;-73
2022/12/17 13:12:01;;;;;;;33.40;16.20;;;;;;;0.49;100.00;96529.78;1026476;28;20635;-73
2022/12/17 13:12:49;;;;;;;72.35;17.42;;;;;;;0.83;100.00;96526.63;1022641;28;21006;-74
2022/12/17 13:13:28;;;;;;;32.95;16.35;;;;;;;0.79;100.00;96529.75;1023711;28;20269;-73
2022/12/17 13:14:00;;;;;;;30.13;15.63;;;;;;;0.87;100.00;96534.81;1030502;28;20253;-73
2022/12/17 13:14:51;;;;;;;26.70;15.45;;;;;;;1.14;100.00;96528.97;1027500;28;20274;-73
2022/12/17 13:15:25;;;;;;;27.08;16.08;;;;;;;1.21;100.00;96512.69;1038350;28;20252;-73
2022/12/17 13:16:00;;;;;;;31.05;16.38;;;;;;;1.22;100.00;96525.44;1037953;28;20244;-73
2022/12/17 13:16:37;;;;;;;34.95;16.08;;;;;;;1.10;100.00;96542.41;1026265;28;20262;-73
2022/12/17 13:17:14;;;;;;;29.40;16.40;;;;;;;1.12;100.00;96533.50;1030433;28;20885;-74
2022/12/17 13:18:01;;;;;;;29.95;15.40;;;;;;;1.27;100.00;96528.28;1030623;28;20261;-73
2022/12/17 13:18:35;;;;;;;30.23;15.55;;;;;;;0.73;100.00;96535.63;1030364;28;20336;-73
2022/12/17 13:19:37;;;;;;;32.50;17.13;;;;;;;0.98;100.00;96542.09;1030238;28;20265;-74
2022/12/17 13:20:23;;;;;;;30.08;16.85;;;;;;;0.55;100.00;96542.00;1028319;28;20899;-73
2022/12/17 13:20:58;;;;;;;30.27;16.30;;;;;;;0.27;100.00;96539.25;1032639;28;20281;-73
2022/12/17 13:21:30;;;;;;;29.80;16.73;;;;;;;0.07;100.00;96538.97;1034312;28;20288;-73
2022/12/17 13:22:15;;;;;;;30.75;17.45;;;;;;;-0.20;100.00;96544.69;1029254;28;20384;-73
2022/12/17 13:22:51;;;;;;;29.23;16.27;;;;;;;-0.16;100.00;96540.81;1029715;28;20277;-73
2022/12/17 13:23:39;;;;;;;31.48;17.65;;;;;;;-0.04;100.00;96544.53;1021809;29;20282;-73
2022/12/17 13:24:22;;;;;;;31.90;17.60;;;;;;;0.09;100.00;96534.41;1029500;28;20861;-74
2022/12/17 13:25:32;;;;;;;30.45;17.27;;;;;;;0.34;100.00;96539.34;1029736;28;21312;-73
2022/12/17 13:26:38;;;;;;;33.65;17.60;;;;;;;0.50;100.00;96546.88;1012913;29;20288;-73
2022/12/17 13:27:31;;;;;;;32.80;17.48;;;;;;;0.33;100.00;96546.25;1012161;29;20263;-74
2022/12/17 13:28:02;;;;;;;30.17;16.85;;;;;;;0.35;100.00;96541.72;1021538;28;20282;-73
2022/12/17 13:28:32;;;;;;;28.77;15.90;;;;;;;0.52;100.00;96544.13;1017931;29;20286;-73
2022/12/17 13:29:18;;;;;;;30.98;17.02;;;;;;;-0.06;100.00;96538.78;1008768;29;20828;-72
2022/12/17 13:29:49;;;;;;;28.85;16.48;;;;;;;-0.62;100.00;96549.38;1021899;29;20174;-73
2022/12/17 13:30:33;;;;;;;34.58;18.70;;;;;;;-0.84;100.00;96545.00;1024344;28;21071;-73
2022/12/17 13:31:17;;;;;;;37.28;18.73;;;;;;;-0.98;100.00;96541.38;1019350;29;20031;-73
2022/12/17 13:31:54;;;;;;;51.17;25.65;;;;;;;-0.88;100.00;96544.53;1013584;28;20267;-73
2022/12/17 13:32:33;;;;;;;39.22;21.05;;;;;;;-0.97;100.00;96543.81;1021106;29;20264;-72
2022/12/17 13:33:19;;;;;;;54.30;28.42;;;;;;;-1.26;100.00;96544.44;1025884;28;20288;-72
2022/12/17 13:33:56;;;;;;;39.80;20.25;;;;;;;-1.50;100.00;96547.13;1025230;28;20081;-73
2022/12/17 13:34:55;;;;;;;42.85;23.10;;;;;;;-1.34;100.00;96535.94;1024268;28;20277;-72
2022/12/17 13:35:29;;;;;;;70.10;34.40;;;;;;;-1.78;100.00;96544.94;1019491;28;21099;-72
2022/12/17 13:36:32;;;;;;;62.83;29.75;;;;;;;-1.74;100.00;96548.00;1025308;28;20035;-72
2022/12/17 13:37:14;;;;;;;41.22;20.72;;;;;;;-2.03;100.00;96540.84;1031108;28;20270;-72
2022/12/17 13:38:09;;;;;;;40.78;20.14;;;;;;;-2.15;100.00;96548.06;1026078;28;20546;-72
2022/12/17 13:38:42;;;;;;;36.00;18.92;;;;;;;-2.24;100.00;96549.88;1026343;28;20027;-72
2022/12/17 13:39:12;;;;;;;35.12;19.38;;;;;;;-2.28;100.00;96548.59;1030662;28;20545;-73
2022/12/17 13:40:22;;;;;;;36.83;19.73;;;;;;;-2.43;100.00;96545.03;1038315;28;20029;-72
2022/12/17 13:41:04;;;;;;;30.70;17.12;;;;;;;-2.40;100.00;96548.09;1023321;28;20039;-72
2022/12/17 13:41:35;;;;;;;37.30;18.16;;;;;;;-2.41;100.00;96553.41;1030230;28;20022;-72
2022/12/17 13:42:26;;;;;;;36.53;19.83;;;;;;;-2.33;100.00;96550.81;1022563;29;20491;-72
2022/12/17 13:42:56;;;;;;;37.30;18.17;;;;;;;-2.57;100.00;96550.84;1022282;29;20026;-72
2022/12/17 13:43:30;;;;;;;38.42;19.73;;;;;;;-2.67;100.00;96553.56;1022556;29;20078;-72
2022/12/17 13:44:03;;;;;;;40.40;20.02;;;;;;;-2.94;100.00;96547.75;1027752;28;20541;-72
2022/12/17 13:44:42;;;;;;;38.08;18.96;;;;;;;-3.09;100.00;96537.25;1018103;29;20027;-72
2022/12/17 13:45:17;;;;;;;41.08;19.58;;;;;;;-3.09;100.00;96554.44;1022324;29;20084;-72
2022/12/17 13:45:47;;;;;;;44.56;19.42;;;;;;;-3.14;100.00;96557.47;1019524;29;20101;-72
2022/12/17 13:46:40;;;;;;;40.47;20.20;;;;;;;-2.92;100.00;96562.97;1024150;28;20096;-73
2022/12/17 13:47:21;;;;;;;40.52;19.06;;;;;;;-3.16;100.00;96550.88;1018175;29;20035;-73
2022/12/17 13:47:56;;;;;;;39.30;20.38;;;;;;;-3.18;100.00;96551.06;1023310;28;20556;-72
2022/12/17 13:48:27;;;;;;;41.74;20.48;;;;;;;-3.02;100.00;96559.75;1021003;29;20031;-72
2022/12/17 13:48:59;;;;;;;41.03;20.60;;;;;;;-3.04;100.00;96556.53;1022454;29;20015;-72
2022/12/17 13:49:30;;;;;;;37.68;20.16;;;;;;;-3.04;100.00;96566.81;1022189;29;20034;-72
2022/12/17 13:50:02;;;;;;;36.13;19.27;;;;;;;-2.98;100.00;96571.31;1021975;29;20038;-72
2022/12/17 13:50:33;;;;;;;37.72;19.58;;;;;;;-3.27;100.00;96562.25;1030246;28;20393;-73
2022/12/17 13:51:04;;;;;;;37.13;19.92;;;;;;;-3.34;100.00;96556.13;1022148;29;20494;-73
2022/12/17 13:51:34;;;;;;;39.65;20.52;;;;;;;-3.41;100.00;96568.78;1026484;28;20807;-72
2022/12/17 13:52:18;;;;;;;41.28;20.52;;;;;;;-3.62;100.00;96569.19;1018924;29;20027;-72
2022/12/17 13:52:48;;;;;;;41.70;19.98;;;;;;;-3.51;100.00;96554.47;1020062;29;20083;-73
2022/12/17 13:53:19;;;;;;;39.63;21.58;;;;;;;-3.62;100.00;96564.03;1018491;29;20024;-72
2022/12/17 13:54:14;;;;;;;41.30;20.50;;;;;;;-3.76;100.00;96566.34;1021692;29;20031;-73
2022/12/17 13:54:44;;;;;;;39.00;19.06;;;;;;;-3.88;100.00;96563.25;1018359;29;20048;-72
2022/12/17 13:55:33;;;;;;;42.25;20.25;;;;;;;-3.81;100.00;96559.13;1034095;28;20045;-72
2022/12/17 13:56:03;;;;;;;38.38;19.63;;;;;;;-3.76;100.00;96567.16;1024988;28;20027;-72
2022/12/17 13:56:35;;;;;;;38.97;20.20;;;;;;;-3.68;100.00;96569.78;1018223;29;20032;-72
2022/12/17 13:57:12;;;;;;;42.47;22.58;;;;;;;-3.69;100.00;96562.22;1020956;28;20514;-72
2022/12/17 13:57:45;;;;;;;40.15;21.25;;;;;;;-3.61;100.00;96565.66;1028303;28;20027;-72
2022/12/17 13:58:25;;;;;;;57.90;21.23;;;;;;;-3.69;100.00;96557.09;1030200;28;20610;-72
2022/12/17 13:58:56;;;;;;;43.40;20.55;;;;;;;-3.52;100.00;96574.19;1022272;28;20031;-71
2022/12/17 13:59:28;;;;;;;47.88;22.48;;;;;;;-3.52;100.00;96573.38;1022693;28;20913;-72
2022/12/17 14:00:01;;;;;;;45.30;21.40;;;;;;;-3.49;100.00;96575.63;1028256;28;20093;-72
2022/12/17 14:00:31;;;;;;;43.85;21.52;;;;;;;-3.43;100.00;96580.16;1026828;28;20035;-72
2022/12/17 14:01:06;;;;;;;42.55;21.75;;;;;;;-3.44;100.00;96574.22;1030787;28;20046;-72
2022/12/17 14:01:44;;;;;;;47.60;22.15;;;;;;;-3.53;100.00;96567.44;1026109;28;20062;-72
2022/12/17 14:02:30;;;;;;;43.68;22.50;;;;;;;-3.56;100.00;96568.53;1032055;28;20030;-72
2022/12/17 14:03:10;;;;;;;48.50;22.48;;;;;;;-3.55;100.00;96569.38;1034183;28;20149;-72
2022/12/17 14:03:53;;;;;;;41.90;21.55;;;;;;;-3.71;100.00;96570.09;1022132;29;20583;-72
2022/12/17 14:04:25;;;;;;;43.22;21.27;;;;;;;-3.68;100.00;96577.47;1018243;29;20070;-73
2022/12/17 14:05:04;;;;;;;42.83;21.15;;;;;;;-3.75;100.00;96566.22;1022183;29;20568;-72
2022/12/17 14:05:40;;;;;;;40.08;21.77;;;;;;;-3.84;100.00;96572.25;1030252;28;20037;-72
2022/12/17 14:06:11;;;;;;;40.78;21.08;;;;;;;-3.81;100.00;96579.66;1021529;29;20031;-72
2022/12/17 14:06:41;;;;;;;43.50;21.77;;;;;;;-3.87;100.00;96568.22;1024183;28;20520;-72
2022/12/17 14:07:12;;;;;;;42.53;22.17;;;;;;;-3.86;100.00;96576.72;1018057;29;20030;-72
2022/12/17 14:07:42;;;;;;;48.57;23.60;;;;;;;-3.98;100.00;96583.88;1022291;28;20115;-73
2022/12/17 14:08:15;;;;;;;47.13;23.00;;;;;;;-4.06;100.00;96581.25;1018091;29;20054;-73
2022/12/17 14:08:46;;;;;;;54.13;26.77;;;;;;;-4.03;100.00;96580.94;1022314;29;20050;-72
2022/12/17 14:09:18;;;;;;;52.53;25.83;;;;;;;-3.96;100.00;96581.94;1020714;29;20035;-72
2022/12/17 14:09:49;;;;;;;65.50;30.83;;;;;;;-4.06;100.00;96587.19;1025235;28;20018;-72
2022/12/17 14:10:19;;;;;;;58.97;27.07;;;;;;;-4.07;100.00;96570.19;1022147;29;20035;-71
2022/12/17 14:10:51;;;;;;;52.97;25.63;;;;;;;-4.01;100.00;96583.38;1022429;29;20029;-72
2022/12/17 14:12:23;;;;;;;50.28;24.42;;;;;;;-4.05;100.00;96583.66;1021041;29;20719;-72
2022/12/17 14:13:09;;;;;;;44.65;23.55;;;;;;;-4.09;100.00;96582.38;1022075;28;20082;-72
2022/12/17 14:13:41;;;;;;;51.65;23.73;;;;;;;-4.00;100.00;96585.78;1030617;28;20038;-72
2022/12/17 14:14:33;;;;;;;50.80;24.05;;;;;;;-3.98;100.00;96590.75;1024751;28;20584;-71
2022/12/17 14:15:07;;;;;;;41.38;21.55;;;;;;;-4.03;100.00;96586.88;1030203;28;20037;-72
2022/12/17 14:15:37;;;;;;;46.50;23.55;;;;;;;-4.10;100.00;96583.31;1024448;28;20050;-72
2022/12/17 14:16:08;;;;;;;51.90;24.53;;;;;;;-4.05;100.00;96593.13;1024426;28;20035;-72
2022/12/17 14:16:39;;;;;;;64.43;29.23;;;;;;;-4.11;100.00;96594.50;1019378;29;20028;-72
2022/12/17 14:17:17;;;;;;;58.40;26.58;;;;;;;-4.18;100.00;96596.06;1018368;29;20616;-72
2022/12/17 14:17:48;;;;;;;53.80;26.73;;;;;;;-4.18;100.00;96588.38;1023912;28;20428;-72
2022/12/17 14:18:19;;;;;;;61.50;29.10;;;;;;;-4.15;100.00;96595.78;1030190;28;20022;-72
2022/12/17 14:18:56;;;;;;;50.88;26.67;;;;;;;-4.28;100.00;96605.59;1022322;29;20523;-72
2022/12/17 14:19:27;;;;;;;54.88;26.85;;;;;;;-4.28;100.00;96597.91;1017251;29;20115;-72
2022/12/17 14:19:58;;;;;;;53.03;27.13;;;;;;;-4.30;100.00;96595.47;1021900;29;20031;-71
2022/12/17 14:20:32;;;;;;;50.57;25.37;;;;;;;-4.34;100.00;96607.00;1022564;29;20027;-72
2022/12/17 14:21:04;;;;;;;49.25;26.13;;;;;;;-4.40;100.00;96599.88;1022260;28;20020;-72
2022/12/17 14:21:34;;;;;;;47.63;23.88;;;;;;;-4.41;100.00;96600.84;1034648;28;20030;-73
2022/12/17 14:22:05;;;;;;;47.30;23.80;;;;;;;-4.46;100.00;96599.66;1029504;28;20790;-72
2022/12/17 14:22:55;;;;;;;54.67;25.83;;;;;;;-4.50;100.00;96599.16;1025005;28;20551;-72
2022/12/17 14:23:27;;;;;;;53.83;24.88;;;;;;;-4.60;100.00;96599.22;1026437;28;20101;-72
2022/12/17 14:23:58;;;;;;;51.08;24.73;;;;;;;-4.57;100.00;96600.72;1017251;29;20132;-72
2022/12/17 14:24:28;;;;;;;51.53;24.53;;;;;;;-4.62;100.00;96596.03;1025060;28;20077;-72
2022/12/17 14:24:59;;;;;;;51.57;25.57;;;;;;;-4.46;100.00;96615.03;1029919;28;20519;-72
2022/12/17 14:25:37;;;;;;;52.10;24.37;;;;;;;-4.54;100.00;96608.91;1031374;28;20121;-71
2022/12/17 14:26:11;;;;;;;50.10;23.40;;;;;;;-4.67;100.00;96603.34;1028433;28;20027;-71
2022/12/17 14:26:51;;;;;;;48.97;23.67;;;;;;;-4.69;100.00;96612.09;1027810;28;20057;-72
2022/12/17 14:27:29;;;;;;;51.03;22.63;;;;;;;-4.74;100.00;96608.22;1025091;28;20035;-72
2022/12/17 14:28:03;;;;;;;55.35;25.42;;;;;;;-4.80;100.00;96608.00;1027920;28;20029;-71
2022/12/17 14:28:35;;;;;;;53.70;24.02;;;;;;;-4.90;100.00;96602.16;1033352;28;20062;-72
2022/12/17 14:29:11;;;;;;;54.28;26.48;;;;;;;-4.97;100.00;96602.72;1032589;28;20057;-71
2022/12/17 14:29:45;;;;;;;52.63;24.50;;;;;;;-4.87;100.00;96612.09;1022580;29;20528;-71
2022/12/17 14:30:24;;;;;;;51.45;24.63;;;;;;;-4.94;100.00;96603.38;1022003;29;20064;-72
2022/12/17 14:31:03;;;;;;;57.53;26.25;;;;;;;-4.83;100.00;96610.84;1030190;28;20022;-71
2022/12/17 14:31:34;;;;;;;55.78;24.90;;;;;;;-4.86;100.00;96611.13;1035712;28;20017;-71
2022/12/17 14:32:21;;;;;;;58.23;26.57;;;;;;;-4.90;100.00;96607.25;1034112;28;20140;-72
2022/12/17 14:32:52;;;;;;;55.58;25.98;;;;;;;-4.99;100.00;96612.31;1025892;28;20134;-71
2022/12/17 14:33:23;;;;;;;54.50;26.90;;;;;;;-4.95;100.00;96614.59;1025969;28;20053;-71
2022/12/17 14:34:06;;;;;;;54.92;28.55;;;;;;;-5.03;100.00;96611.00;1026455;28;20106;-71
2022/12/17 14:34:40;;;;;;;55.05;26.88;;;;;;;-5.01;100.00;96611.63;1030263;28;20018;-71
2022/12/17 14:35:30;;;;;;;54.50;26.60;;;;;;;-5.04;100.00;96606.00;1025286;28;20037;-72
2022/12/17 14:36:22;;;;;;;54.92;27.55;;;;;;;-5.12;100.00;96609.28;1026403;28;20029;-72
2022/12/17 14:36:54;;;;;;;54.63;25.40;;;;;;;-5.11;100.00;96610.09;1030688;28;20033;-71
2022/12/17 14:37:25;;;;;;;67.45;29.80;;;;;;;-5.12;100.00;96611.84;1030281;28;20587;-71
2022/12/17 14:37:55;;;;;;;63.70;29.77;;;;;;;-5.13;100.00;96607.69;1028826;28;20030;-72
2022/12/17 14:38:26;;;;;;;67.23;29.80;;;;;;;-5.12;100.00;96616.16;1032537;28;20022;-71
2022/12/17 14:39:09;;;;;;;69.40;32.60;;;;;;;-5.19;100.00;96610.81;1022383;29;20049;-71
2022/12/17 14:39:40;;;;;;;68.53;32.70;;;;;;;-5.15;100.00;96619.00;1022592;29;20063;-72
2022/12/17 14:40:12;;;;;;;76.73;32.03;;;;;;;-5.18;100.00;96614.97;1021633;28;20034;-71
2022/12/17 14:40:43;;;;;;;67.88;33.03;;;;;;;-5.22;100.00;96613.66;1025927;28;20058;-71
2022/12/17 14:42:28;;;;;;;56.65;28.55;;;;;;;-5.26;100.00;96622.56;1026358;28;20074;-72
2022/12/17 14:42:59;;;;;;;62.42;28.50;;;;;;;-5.33;100.00;96616.38;1030370;28;20030;-71
2022/12/17 14:43:29;;;;;;;59.65;27.30;;;;;;;-5.36;100.00;96624.34;1023477;28;20039;-71
2022/12/17 14:44:00;;;;;;;58.50;27.47;;;;;;;-5.41;100.00;96616.28;1026105;28;20035;-71
2022/12/17 14:44:31;;;;;;;62.95;29.05;;;;;;;-5.35;100.00;96623.41;1022008;29;20129;-71
2022/12/17 14:45:05;;;;;;;60.97;27.90;;;;;;;-5.38;100.00;96629.59;1026642;28;20597;-71
2022/12/17 14:46:19;;;;;;;58.88;27.98;;;;;;;-5.39;100.00;96627.19;1018490;28;20028;-71
2022/12/17 14:46:27;;;;;;;74.75;33.33;;;;;;;-5.47;100.00;96618.44;1022554;29;20838;-71
2022/12/17 14:47:28;;;;;;;65.90;29.70;;;;;;;-5.41;100.00;96629.88;1018737;29;20016;-71
2022/12/17 14:47:59;;;;;;;;;;;;;;;-5.41;100.00;96629.88;1027107;28;20669;-71
2022/12/17 14:48:59;;;;;;;71.28;29.38;;;;;;;-5.46;100.00;96621.84;1022791;28;19914;-72
2022/12/17 14:49:20;;;;;;;64.80;31.30;;;;;;;-5.48;100.00;96631.38;1021618;28;20058;-71
2022/12/17 14:50:01;;;;;;;68.73;31.83;;;;;;;-5.49;100.00;96640.00;1022453;29;20086;-70
2022/12/17 14:50:33;;;;;;;67.97;31.60;;;;;;;-5.53;100.00;96636.94;1023047;28;20627;-71
2022/12/17 14:51:03;;;;;;;136.98;51.33;;;;;;;-5.52;100.00;96638.53;1029337;28;20026;-71
2022/12/17 14:51:35;;;;;;;119.03;48.17;;;;;;;-5.55;100.00;96643.94;1028979;28;20042;-72
2022/12/17 14:52:12;;;;;;;107.60;45.13;;;;;;;-5.62;100.00;96626.75;1030513;28;20036;-71
2022/12/17 14:52:51;;;;;;;118.80;45.22;;;;;;;-5.55;100.00;96638.00;1033390;28;20080;-72
2022/12/17 14:53:24;;;;;;;93.25;37.17;;;;;;;-5.59;100.00;96637.50;1026595;28;20121;-71
2022/12/17 14:54:13;;;;;;;88.70;38.42;;;;;;;-5.53;100.00;96642.03;1026465;28;20097;-71
2022/12/17 14:54:45;;;;;;;100.07;42.38;;;;;;;-5.55;100.00;96649.03;1030341;28;20101;-72
2022/12/17 14:55:28;;;;;;;95.80;40.05;;;;;;;-5.56;100.00;96646.63;1029919;28;20137;-71
2022/12/17 14:55:58;;;;;;;98.40;40.58;;;;;;;-5.63;100.00;96643.84;1038323;28;20059;-72
2022/12/17 14:56:28;;;;;;;250.10;83.87;;;;;;;-5.66;100.00;96646.66;1034463;28;20092;-71
2022/12/17 14:56:59;;;;;;;143.83;53.03;;;;;;;-5.72;100.00;96642.91;1032024;28;20026;-71
2022/12/17 14:57:30;;;;;;;140.53;55.33;;;;;;;-5.79;100.00;96633.38;1025728;28;20464;-71
2022/12/17 14:58:15;;;;;;;203.00;73.73;;;;;;;-5.72;100.00;96647.22;1030682;28;20026;-72
2022/12/17 14:58:45;;;;;;;197.35;68.35;;;;;;;-5.78;100.00;96647.75;1035286;28;20099;-72
2022/12/17 14:59:25;;;;;;;166.03;63.13;;;;;;;-5.75;100.00;96652.59;1038447;28;20096;-72
2022/12/17 14:59:55;;;;;;;136.32;59.45;;;;;;;-5.77;100.00;96651.91;1042891;28;20032;-72
2022/12/17 15:00:26;;;;;;;113.80;49.83;;;;;;;-5.82;100.00;96641.31;1038881;28;20021;-71
2022/12/17 15:01:04;;;;;;;117.90;50.20;;;;;;;-5.90;100.00;96638.63;1034780;28;20026;-71
2022/12/17 15:01:35;;;;;;;86.05;40.17;;;;;;;-5.88;100.00;96639.31;1034582;28;20022;-71
2022/12/17 15:02:09;;;;;;;83.87;38.33;;;;;;;-5.84;100.00;96654.22;1022862;28;20058;-72
2022/12/17 15:02:42;;;;;;;96.45;43.42;;;;;;;-5.87;100.00;96639.16;1029988;28;20033;-72
2022/12/17 15:03:22;;;;;;;81.60;35.95;;;;;;;-5.86;100.00;96652.75;1034494;28;20112;-71
2022/12/17 15:03:55;;;;;;;85.40;35.75;;;;;;;-5.92;100.00;96649.00;1034600;28;20053;-71
2022/12/17 15:04:26;;;;;;;73.05;34.97;;;;;;;-5.88;100.00;96657.19;1025322;28;20768;-72
2022/12/17 15:04:57;;;;;;;69.90;34.40;;;;;;;-5.93;100.00;96655.91;1025284;28;20027;-72
2022/12/17 15:05:27;;;;;;;74.90;33.50;;;;;;;-5.95;100.00;96647.56;1022414;28;20106;-72
2022/12/17 15:06:01;;;;;;;66.37;34.60;;;;;;;-5.97;100.00;96654.56;1025027;28;20030;-72
2022/12/17 15:06:31;;;;;;;76.68;34.55;;;;;;;-5.96;100.00;96658.72;1022373;29;20094;-73
2022/12/17 15:07:04;;;;;;;73.20;35.13;;;;;;;-6.02;100.00;96649.03;1026570;28;20480;-73
2022/12/17 15:07:35;;;;;;;70.88;34.08;;;;;;;-6.00;100.00;96654.84;1029904;28;20029;-73
2022/12/17 15:08:05;;;;;;;73.43;35.77;;;;;;;-6.05;100.00;96662.09;1030733;28;20069;-72
2022/12/17 15:08:40;;;;;;;70.30;34.70;;;;;;;-6.01;100.00;96658.31;1026121;28;20686;-73
2022/12/17 15:09:11;;;;;;;71.07;34.40;;;;;;;-6.02;100.00;96669.47;1026369;28;20058;-72
2022/12/17 15:09:43;;;;;;;72.47;34.22;;;;;;;-6.06;100.00;96663.03;1026404;28;20113;-72
2022/12/17 15:10:17;;;;;;;74.75;35.92;;;;;;;-6.05;100.00;96661.28;1024518;28;20042;-72
2022/12/17 15:10:51;;;;;;;75.15;35.50;;;;;;;-6.08;100.00;96662.34;1023483;28;20027;-72
2022/12/17 15:11:21;;;;;;;70.60;33.25;;;;;;;-6.14;100.00;96655.22;1027064;28;20097;-71
2022/12/17 15:11:52;;;;;;;71.33;34.20;;;;;;;-6.12;100.00;96667.88;1022150;28;20666;-71
2022/12/17 15:12:23;;;;;;;70.77;33.70;;;;;;;-6.14;100.00;96662.88;1018782;29;20059;-71
2022/12/17 15:12:53;;;;;;;71.50;36.00;;;;;;;-6.22;100.00;96657.66;1022136;28;20034;-72
2022/12/17 15:13:24;;;;;;;76.17;35.17;;;;;;;-6.23;100.00;96661.16;1021799;29;20747;-72
2022/12/17 15:13:54;;;;;;;77.70;35.87;;;;;;;-6.26;100.00;96664.78;1020767;28;20016;-72
2022/12/17 15:14:25;;;;;;;69.30;34.17;;;;;;;-6.28;100.00;96661.56;1027165;28;20712;-71
2022/12/17 15:14:55;;;;;;;75.17;36.77;;;;;;;-6.44;100.00;96639.13;1032304;28;20056;-70
2022/12/17 15:15:26;;;;;;;77.23;34.27;;;;;;;-6.31;100.00;96666.13;1037790;28;20029;-72
2022/12/17 15:15:56;;;;;;;72.43;35.73;;;;;;;-6.36;100.00;96655.53;1032874;28;20018;-72
2022/12/17 15:16:27;;;;;;;74.97;35.63;;;;;;;-6.34;100.00;96662.09;1030368;28;20069;-71
2022/12/17 15:16:59;;;;;;;79.63;36.20;;;;;;;-6.37;100.00;96653.88;1021979;28;20035;-71
2022/12/17 15:17:30;;;;;;;77.72;37.00;;;;;;;-6.34;100.00;96662.09;1026042;28;20023;-72
2022/12/17 15:18:00;;;;;;;78.00;36.53;;;;;;;-6.38;100.00;96652.28;1026325;28;20381;-72
2022/12/17 15:18:31;;;;;;;75.90;37.47;;;;;;;-6.38;100.00;96652.28;1026262;28;20058;-72
2022/12/17 15:19:02;;;;;;;80.57;35.87;;;;;;;-6.43;100.00;96647.59;1026898;28;20031;-71
2022/12/17 15:19:32;;;;;;;77.07;36.23;;;;;;;-6.39;100.00;96655.78;1034123;28;20812;-72
2022/12/17 15:20:03;;;;;;;76.17;37.27;;;;;;;-6.41;100.00;96661.00;1036136;28;20105;-72
2022/12/17 15:20:34;;;;;;;80.75;38.70;;;;;;;-6.41;100.00;96650.81;1028558;28;20042;-72
2022/12/17 15:21:04;;;;;;;82.43;37.03;;;;;;;-6.47;100.00;96652.16;1029285;28;20053;-72
2022/12/17 15:21:35;;;;;;;70.00;34.13;;;;;;;-6.46;100.00;96656.31;1022581;29;20023;-72
2022/12/17 15:22:08;;;;;;;76.67;36.13;;;;;;;-6.43;100.00;96663.72;1022417;29;20064;-72
2022/12/17 15:22:38;;;;;;;72.95;35.20;;;;;;;-6.46;100.00;96661.44;1033502;28;20538;-71
2022/12/17 15:23:16;;;;;;;77.43;35.33;;;;;;;-6.53;100.00;96665.47;1031957;28;20562;-71
2022/12/17 15:23:46;;;;;;;83.85;36.05;;;;;;;-6.48;100.00;96665.03;1024608;28;20084;-71
2022/12/17 15:24:18;;;;;;;72.80;35.33;;;;;;;-6.56;100.00;96658.06;1022085;28;20396;-72
2022/12/17 15:24:49;;;;;;;76.70;34.85;;;;;;;-6.54;100.00;96671.50;1028182;28;20034;-70
2022/12/17 15:25:19;;;;;;;62.73;32.37;;;;;;;-6.63;100.00;96651.88;1030191;28;20027;-72
2022/12/17 15:25:50;;;;;;;74.67;34.17;;;;;;;-6.58;100.00;96665.03;1027922;28;20118;-71
2022/12/17 15:26:21;;;;;;;79.68;35.80;;;;;;;-6.64;100.00;96663.00;1029992;28;20129;-72
2022/12/17 15:26:51;;;;;;;77.07;35.17;;;;;;;-6.57;100.00;96665.84;1024635;28;20389;-71
2022/12/17 15:27:22;;;;;;;83.00;35.83;;;;;;;-6.59;100.00;96670.28;1026447;28;20026;-72
2022/12/17 15:27:54;;;;;;;72.17;35.50;;;;;;;-6.69;100.00;96660.88;1026610;28;20065;-72
2022/12/17 15:28:25;;;;;;;78.82;35.53;;;;;;;-6.69;100.00;96660.06;1030754;28;20512;-72
2022/12/17 15:28:56;;;;;;;82.18;36.38;;;;;;;-6.68;100.00;96665.03;1034101;28;20084;-71
2022/12/17 15:29:27;;;;;;;70.87;33.00;;;;;;;-6.69;100.00;96672.81;1034476;28;20108;-71
2022/12/17 15:29:58;;;;;;;92.20;36.15;;;;;;;-6.73;100.00;96667.19;1034634;28;20029;-72
2022/12/17 15:30:28;;;;;;;79.20;37.00;;;;;;;-6.83;100.00;96660.44;1033601;28;20049;-73
2022/12/17 15:30:59;;;;;;;77.67;36.33;;;;;;;-6.84;100.00;96663.91;1030305;28;20057;-71
2022/12/17 15:31:29;;;;;;;87.30;37.50;;;;;;;-6.94;100.00;96654.53;1030186;28;20026;-72
2022/12/17 15:32:00;;;;;;;89.93;36.37;;;;;;;-6.80;100.00;96670.41;1026268;28;20089;-71
2022/12/17 15:32:30;;;;;;;91.43;38.00;;;;;;;-6.84;100.00;96664.75;1026687;28;20097;-73
2022/12/17 15:33:02;;;;;;;89.23;40.73;;;;;;;-6.84;100.00;96669.03;1034243;28;20041;-72
2022/12/17 15:33:32;;;;;;;84.03;37.80;;;;;;;-6.87;100.00;96672.66;1025302;28;20031;-71
2022/12/17 15:34:03;;;;;;;88.27;39.27;;;;;;;-6.89;100.00;96667.69;1022818;28;20078;-71
2022/12/17 15:34:34;;;;;;;90.13;40.60;;;;;;;-6.88;100.00;96669.28;1029444;28;20076;-71
2022/12/17 15:35:05;;;;;;;85.50;39.37;;;;;;;-6.88;100.00;96673.56;1027758;28;20053;-71
2022/12/17 15:35:36;;;;;;;86.65;40.22;;;;;;;-6.90;100.00;96670.38;1025201;28;20138;-72
2022/12/17 15:36:06;;;;;;;91.38;41.50;;;;;;;-6.92;100.00;96667.94;1025693;28;20058;-72
2022/12/17 15:36:37;;;;;;;94.57;42.73;;;;;;;-6.92;100.00;96664.59;1026469;28;20030;-71
2022/12/17 15:37:07;;;;;;;123.43;46.83;;;;;;;-6.90;100.00;96666.06;1021495;28;20089;-71
2022/12/17 15:37:38;;;;;;;104.93;44.90;;;;;;;-6.89;100.00;96662.56;1022612;29;20121;-72
2022/12/17 15:38:09;;;;;;;104.10;44.87;;;;;;;-6.92;100.00;96665.38;1030698;28;20026;-72
2022/12/17 15:38:39;;;;;;;102.73;44.40;;;;;;;-6.96;100.00;96661.50;1026635;28;20046;-73
2022/12/17 15:39:10;;;;;;;100.60;43.00;;;;;;;-6.90;100.00;96665.28;1022175;28;20027;-72
2022/12/17 15:39:40;;;;;;;88.57;40.17;;;;;;;-6.96;100.00;96656.38;1034905;28;20018;-71
2022/12/17 15:40:11;;;;;;;96.13;39.70;;;;;;;-6.96;100.00;96661.50;1030342;28;20034;-71
2022/12/17 15:40:41;;;;;;;119.20;44.80;;;;;;;-6.92;100.00;96662.03;1028925;28;20030;-72
2022/12/17 15:43:39;;;;;;;90.90;38.88;;;;;;;-7.04;100.00;96669.00;1039224;28;20160;-72
2022/12/17 15:44:10;;;;;;;82.57;39.47;;;;;;;-7.13;100.00;96655.28;1034812;28;20030;-72
2022/12/17 15:44:40;;;;;;;105.27;39.93;;;;;;;-7.14;100.00;96660.50;1030919;28;20034;-72
2022/12/17 15:45:11;;;;;;;96.80;39.37;;;;;;;-7.17;100.00;96660.78;1033435;28;20042;-72
2022/12/17 15:45:43;;;;;;;89.30;39.17;;;;;;;-7.18;100.00;96666.78;1034735;28;20387;-72
2022/12/17 15:46:13;;;;;;;96.72;40.60;;;;;;;-7.24;100.00;96662.19;1043417;28;20082;-72
2022/12/17 15:46:44;;;;;;;97.53;39.33;;;;;;;-7.19;100.00;96665.19;1034999;28;20585;-72
2022/12/17 15:47:14;;;;;;;94.07;39.77;;;;;;;-7.21;100.00;96662.78;1034596;28;20018;-72
2022/12/17 15:47:45;;;;;;;97.70;41.27;;;;;;;-7.25;100.00;96656.28;1031280;28;20018;-72
2022/12/17 15:48:20;;;;;;;104.03;42.63;;;;;;;-7.22;100.00;96661.13;1031164;28;20034;-71
2022/12/17 15:48:50;;;;;;;98.95;40.15;;;;;;;-7.25;100.00;96665.69;1031014;28;20534;-71
2022/12/17 15:49:21;;;;;;;98.90;41.70;;;;;;;-7.28;100.00;96661.66;1027012;28;20034;-72
2022/12/17 15:49:52;;;;;;;95.30;40.60;;;;;;;-7.28;100.00;96651.44;1028470;28;20018;-72
2022/12/17 15:50:22;;;;;;;106.00;40.93;;;;;;;-7.30;100.00;96658.44;1035420;28;20293;-72
2022/12/17 15:50:53;;;;;;;111.77;41.80;;;;;;;-7.32;100.00;96655.19;1039375;28;20429;-72